createdAt,value
2023-01-28T00:00:38.089Z,20.50
2023-01-28T00:04:00.454Z,16.75
2023-01-28T00:07:03.888Z,18.25
2023-01-28T00:10:08.439Z,24.50
2023-01-28T00:13:14.695Z,21.75
2023-01-28T00:16:20.583Z,18.50
2023-01-28T00:19:24.154Z,23.50
2023-01-28T00:22:27.882Z,23.75
2023-01-28T00:25:32.201Z,21.25
2023-01-28T00:28:36.385Z,19.50
2023-01-28T00:31:42.568Z,22.25
2023-01-28T00:34:46.260Z,28.50
2023-01-28T00:37:49.746Z,20.50
2023-01-28T00:40:53.510Z,21.00
2023-01-28T00:43:57.324Z,16.25
2023-01-28T00:47:02.498Z,8.00
2023-01-28T00:50:06.966Z,22.25
2023-01-28T00:53:10.732Z,34.00
2023-01-28T00:56:17.100Z,4.00
2023-01-28T00:59:21.088Z,25.00
2023-01-28T01:02:26.037Z,18.00
2023-01-28T01:05:30.766Z,20.00
2023-01-28T01:08:40.167Z,20.50
2023-01-28T01:11:44.422Z,18.50
2023-01-28T01:14:47.884Z,17.00
2023-01-28T01:17:53.254Z,17.00
2023-01-28T01:20:59.051Z,18.25
2023-01-28T01:24:02.985Z,23.00
2023-01-28T01:27:07.184Z,19.75
2023-01-28T01:30:12.242Z,15.25
2023-01-28T01:33:17.785Z,19.00
2023-01-28T01:36:22.257Z,17.75
2023-01-28T01:39:25.975Z,21.00
2023-01-28T01:42:30.370Z,18.75
2023-01-28T01:45:36.752Z,17.00
2023-01-28T01:48:42.921Z,18.00
2023-01-28T01:51:50.293Z,18.25
2023-01-28T01:54:58.615Z,16.75
2023-01-28T01:58:08.501Z,23.75
2023-01-28T02:01:13.290Z,19.75
2023-01-28T02:04:24.577Z,21.25
2023-01-28T02:07:28.957Z,21.33
2023-01-28T02:10:33.117Z,22.25
2023-01-28T02:13:41.849Z,16.75
2023-01-28T02:16:45.455Z,21.25
2023-01-28T02:19:56.650Z,17.00
2023-01-28T02:23:29.467Z,20.00
2023-01-28T02:26:57.032Z,18.25
2023-01-28T02:30:07.383Z,17.00
2023-01-28T02:33:17.644Z,13.50
2023-01-28T02:36:29.397Z,16.25
2023-01-28T02:39:39.413Z,20.75
2023-01-28T02:42:43.088Z,18.00
2023-01-28T02:46:05.739Z,17.25
2023-01-28T02:49:13.405Z,14.75
2023-01-28T02:52:48.930Z,19.25
2023-01-28T02:55:59.709Z,16.25
2023-01-28T02:59:26.127Z,16.00
2023-01-28T03:02:38.645Z,15.00
2023-01-28T03:06:03.566Z,13.25
2023-01-28T03:09:27.354Z,13.25
2023-01-28T03:12:50.892Z,17.50
2023-01-28T03:16:11.465Z,12.75
2023-01-28T03:19:36.731Z,13.50
2023-01-28T03:23:01.463Z,14.25
2023-01-28T03:26:27.339Z,18.50
2023-01-28T03:29:50.393Z,14.25
2023-01-28T03:33:16.172Z,16.25
2023-01-28T03:36:38.995Z,15.50
2023-01-28T03:39:44.831Z,17.00
2023-01-28T03:42:49.421Z,11.25
2023-01-28T03:46:09.344Z,14.00
2023-01-28T03:49:12.960Z,16.00
2023-01-28T03:52:19.766Z,15.00
2023-01-28T03:55:25.813Z,18.00
2023-01-28T03:58:50.273Z,14.75
2023-01-28T04:01:55.457Z,17.50
2023-01-28T04:04:59.803Z,17.00
2023-01-28T04:08:05.973Z,13.00
2023-01-28T04:11:28.390Z,17.00
2023-01-28T04:14:34.091Z,15.25
2023-01-28T04:17:48.295Z,36.00
2023-01-28T04:20:59.559Z,20.25
2023-01-28T04:24:05.785Z,23.25
2023-01-28T04:27:10.098Z,51.25
2023-01-28T04:30:14.091Z,18.00
2023-01-28T04:33:23.819Z,21.50
2023-01-28T04:36:30.481Z,55.25
2023-01-28T04:39:58.571Z,27.00
2023-01-28T04:43:21.628Z,22.50
2023-01-28T04:46:33.111Z,28.75
2023-01-28T04:49:55.983Z,27.75
2023-01-28T04:53:10.460Z,22.00
2023-01-28T04:56:34.706Z,73.33
2023-01-28T04:59:39.732Z,57.25
2023-01-28T05:02:43.993Z,45.50
2023-01-28T05:05:47.911Z,42.75
2023-01-28T05:08:59.852Z,33.25
2023-01-28T05:12:05.881Z,24.75
2023-01-28T05:15:12.911Z,38.75
2023-01-28T05:18:16.629Z,39.75
2023-01-28T05:21:26.411Z,34.50
2023-01-28T05:24:38.133Z,35.75
2023-01-28T05:27:43.411Z,33.00
2023-01-28T05:30:47.878Z,26.75
2023-01-28T05:33:53.063Z,34.25
2023-01-28T05:36:58.227Z,32.25
2023-01-28T05:40:09.553Z,31.00
2023-01-28T05:43:15.771Z,33.75
2023-01-28T05:46:29.134Z,47.25
2023-01-28T05:49:52.368Z,27.50
2023-01-28T05:53:14.057Z,43.75
2023-01-28T05:56:20.686Z,40.50
2023-01-28T05:59:26.996Z,34.75
2023-01-28T06:02:34.195Z,39.25
2023-01-28T06:05:38.163Z,43.75
2023-01-28T06:08:43.119Z,43.00
2023-01-28T06:11:47.020Z,35.75
2023-01-28T06:14:52.446Z,48.00
2023-01-28T06:18:15.719Z,22.25
2023-01-28T06:21:19.749Z,32.00
2023-01-28T06:24:23.890Z,26.25
2023-01-28T06:27:28.055Z,22.25
2023-01-28T06:30:33.875Z,35.75
2023-01-28T06:33:37.469Z,56.75
2023-01-28T06:36:41.294Z,53.25
2023-01-28T06:39:44.771Z,49.50
2023-01-28T06:42:48.721Z,90.67
2023-01-28T06:45:53.604Z,67.67
2023-01-28T06:48:57.314Z,63.33
2023-01-28T06:52:00.855Z,75.33
2023-01-28T06:55:05.026Z,69.67
2023-01-28T06:58:08.475Z,124.67
2023-01-28T07:01:13.974Z,82.67
2023-01-28T07:04:17.529Z,68.33
2023-01-28T07:07:23.093Z,56.25
2023-01-28T07:10:27.082Z,47.50
2023-01-28T07:13:30.949Z,34.00
2023-01-28T07:16:35.957Z,68.33
2023-01-28T07:19:39.953Z,33.50
2023-01-28T07:22:44.951Z,50.00
2023-01-28T07:25:48.731Z,53.75
2023-01-28T07:28:52.251Z,55.00
2023-01-28T07:31:57.694Z,67.00
2023-01-28T07:35:01.394Z,63.75
2023-01-28T07:38:05.494Z,68.00
2023-01-28T07:41:09.957Z,57.75
2023-01-28T07:44:14.231Z,60.00
2023-01-28T07:47:19.624Z,58.50
2023-01-28T07:50:23.679Z,53.75
2023-01-28T07:53:27.579Z,52.75
2023-01-28T07:56:32.904Z,51.00
2023-01-28T07:59:36.551Z,51.25
2023-01-28T08:02:45.119Z,78.67
2023-01-28T08:06:07.650Z,63.25
2023-01-28T08:09:11.870Z,73.00
2023-01-28T08:12:15.383Z,41.75
2023-01-28T08:15:19.892Z,51.25
2023-01-28T08:18:25.191Z,55.00
2023-01-28T08:21:29.512Z,52.75
2023-01-28T08:24:33.103Z,53.25
2023-01-28T08:27:36.953Z,70.75
2023-01-28T08:30:40.695Z,55.00
2023-01-28T08:33:46.383Z,63.25
2023-01-28T08:36:49.888Z,46.75
2023-01-28T08:39:53.829Z,57.25
2023-01-28T08:42:57.816Z,44.50
2023-01-28T08:46:01.890Z,40.75
2023-01-28T08:49:06.683Z,43.50
2023-01-28T08:52:11.189Z,49.00
2023-01-28T08:55:15.556Z,46.00
2023-01-28T08:58:19.963Z,43.25
2023-01-28T09:01:23.506Z,52.50
2023-01-28T09:04:29.569Z,34.75
2023-01-28T09:07:33.378Z,46.50
2023-01-28T09:10:38.644Z,43.50
2023-01-28T09:13:42.131Z,43.00
2023-01-28T09:16:45.987Z,49.00
2023-01-28T09:19:50.886Z,40.25
2023-01-28T09:22:55.724Z,53.00
2023-01-28T09:26:01.835Z,45.00
2023-01-28T09:29:05.618Z,44.50
2023-01-28T09:32:09.084Z,102.33
2023-01-28T09:35:15.426Z,52.75
2023-01-28T09:38:20.082Z,39.75
2023-01-28T09:41:27.468Z,44.25
2023-01-28T09:44:45.467Z,48.75
2023-01-28T09:47:57.057Z,53.25
2023-01-28T09:51:02.812Z,51.50
2023-01-28T09:54:15.697Z,35.00
2023-01-28T09:57:24.643Z,42.25
2023-01-28T10:00:40.169Z,66.75
2023-01-28T10:03:54.541Z,70.67
2023-01-28T10:07:14.867Z,50.00
2023-01-28T10:10:23.792Z,58.00
2023-01-28T10:13:37.987Z,45.25
2023-01-28T10:16:45.881Z,49.00
2023-01-28T10:19:54.886Z,34.50
2023-01-28T10:23:06.570Z,65.75
2023-01-28T10:26:22.954Z,55.25
2023-01-28T10:29:30.343Z,93.00
2023-01-28T10:32:35.975Z,56.50
2023-01-28T10:35:42.567Z,62.00
2023-01-28T10:38:47.894Z,60.25
2023-01-28T10:41:58.256Z,56.75
2023-01-28T10:45:07.946Z,42.00
2023-01-28T10:48:20.489Z,41.75
2023-01-28T10:51:33.035Z,47.25
2023-01-28T10:54:37.987Z,52.00
2023-01-28T10:57:44.443Z,37.75
2023-01-28T11:00:53.635Z,46.25
2023-01-28T11:03:59.884Z,42.00
2023-01-28T11:07:23.162Z,63.75
2023-01-28T11:10:33.962Z,39.00
2023-01-28T11:13:52.025Z,48.50
2023-01-28T11:16:59.638Z,47.00
2023-01-28T11:20:12.014Z,59.25
2023-01-28T11:23:23.130Z,46.50
2023-01-28T11:26:33.739Z,55.50
2023-01-28T11:29:42.145Z,53.75
2023-01-28T11:32:45.639Z,35.50
2023-01-28T11:35:57.243Z,27.50
2023-01-28T11:39:02.348Z,53.75
2023-01-28T11:42:17.210Z,39.75
2023-01-28T11:45:27.012Z,29.50
2023-01-28T11:48:44.746Z,34.50
2023-01-28T11:51:58.052Z,44.25
2023-01-28T11:55:19.279Z,38.75
2023-01-28T11:58:34.303Z,44.75
2023-01-28T12:01:48.911Z,67.75
2023-01-28T12:05:10.135Z,52.25
2023-01-28T12:08:20.737Z,64.50
2023-01-28T12:11:52.437Z,53.25
2023-01-28T12:15:32.658Z,42.75
2023-01-28T12:19:09.795Z,51.25
2023-01-28T12:22:37.826Z,37.50
2023-01-28T12:26:07.832Z,44.25
2023-01-28T12:29:27.835Z,42.50
2023-01-28T12:32:55.341Z,43.50
2023-01-28T12:36:10.059Z,38.25
2023-01-28T12:39:27.179Z,49.25
2023-01-28T12:42:37.323Z,59.75
2023-01-28T12:45:42.425Z,57.25
2023-01-28T12:48:51.859Z,38.00
2023-01-28T12:52:02.947Z,36.00
2023-01-28T12:55:15.823Z,49.25
2023-01-28T12:58:26.999Z,47.00
2023-01-28T13:01:38.522Z,46.25
2023-01-28T13:04:50.504Z,38.00
2023-01-28T13:08:01.302Z,48.50
2023-01-28T13:11:06.086Z,47.25
2023-01-28T13:14:13.199Z,43.00
2023-01-28T13:17:28.360Z,38.00
2023-01-28T13:20:38.991Z,47.75
2023-01-28T13:23:44.733Z,61.25
2023-01-28T13:26:50.416Z,42.25
2023-01-28T13:30:04.740Z,35.75
2023-01-28T13:33:23.627Z,39.00
2023-01-28T13:36:31.771Z,45.75
2023-01-28T13:39:37.439Z,36.50
2023-01-28T13:42:42.265Z,65.25
2023-01-28T13:45:56.863Z,57.00
2023-01-28T13:49:03.158Z,35.50
2023-01-28T13:52:16.586Z,70.67
2023-01-28T13:55:42.453Z,55.25
2023-01-28T13:59:30.105Z,52.00
2023-01-28T14:02:50.248Z,64.75
2023-01-28T14:06:26.536Z,92.00
2023-01-28T14:09:50.621Z,59.25
2023-01-28T14:13:20.727Z,53.25
2023-01-28T14:16:34.751Z,22.50
2023-01-28T14:19:39.874Z,50.50
2023-01-28T14:22:43.856Z,65.75
2023-01-28T14:26:03.018Z,48.25
2023-01-28T14:29:19.755Z,40.25
2023-01-28T14:32:28.862Z,41.25
2023-01-28T14:35:34.988Z,56.25
2023-01-28T14:38:42.493Z,67.33
2023-01-28T14:41:50.523Z,73.00
2023-01-28T14:45:08.655Z,63.25
2023-01-28T14:48:25.492Z,74.33
2023-01-28T14:52:05.359Z,54.50
2023-01-28T14:55:28.920Z,50.00
2023-01-28T14:58:40.182Z,50.00
2023-01-28T15:01:46.811Z,58.25
2023-01-28T15:04:52.969Z,61.75
2023-01-28T15:07:57.485Z,61.25
2023-01-28T15:11:03.440Z,55.00
2023-01-28T15:14:17.507Z,51.00
2023-01-28T15:17:26.599Z,42.25
2023-01-28T15:20:30.491Z,43.50
2023-01-28T15:23:36.847Z,67.75
2023-01-28T15:26:41.028Z,53.75
2023-01-28T15:29:54.007Z,41.00
2023-01-28T15:33:03.258Z,65.75
2023-01-28T15:36:07.612Z,134.33
2023-01-28T15:39:15.887Z,157.00
2023-01-28T15:42:26.577Z,96.67
2023-01-28T15:45:32.512Z,69.67
2023-01-28T15:48:37.847Z,65.00
2023-01-28T15:51:41.550Z,123.00
2023-01-28T15:54:50.611Z,68.00
2023-01-28T15:57:54.121Z,52.75
2023-01-28T16:01:15.260Z,81.00
2023-01-28T16:04:25.731Z,79.33
2023-01-28T16:07:32.432Z,60.25
2023-01-28T16:10:36.142Z,56.00
2023-01-28T16:13:44.960Z,49.50
2023-01-28T16:16:50.588Z,57.00
2023-01-28T16:20:00.380Z,50.50
2023-01-28T16:23:05.131Z,52.00
2023-01-28T16:26:22.803Z,60.50
2023-01-28T16:29:29.256Z,50.50
2023-01-28T16:32:39.105Z,43.25
2023-01-28T16:36:03.691Z,59.75
2023-01-28T16:39:06.509Z,54.00
2023-01-28T16:42:10.555Z,63.25
2023-01-28T16:45:18.918Z,66.50
2023-01-28T16:48:23.786Z,59.75
2023-01-28T16:51:27.944Z,59.00
2023-01-28T16:54:31.584Z,50.50
2023-01-28T16:57:37.376Z,40.25
2023-01-28T17:00:40.829Z,62.50
2023-01-28T17:03:46.097Z,63.25
2023-01-28T17:06:49.469Z,65.33
2023-01-28T17:09:53.799Z,62.50
2023-01-28T17:12:58.763Z,65.00
2023-01-28T17:16:03.691Z,64.00
2023-01-28T17:19:08.683Z,49.00
2023-01-28T17:22:12.559Z,101.67
2023-01-28T17:25:17.110Z,53.50
2023-01-28T17:28:21.664Z,59.00
2023-01-28T17:31:26.503Z,62.25
2023-01-28T17:34:31.920Z,44.33
2023-01-28T17:37:35.586Z,63.67
2023-01-28T17:40:39.408Z,72.33
2023-01-28T17:43:42.929Z,40.75
2023-01-28T17:46:47.965Z,60.25
2023-01-28T17:49:53.083Z,59.50
2023-01-28T17:52:59.432Z,60.75
2023-01-28T17:56:02.955Z,64.00
2023-01-28T17:59:07.719Z,67.67
2023-01-28T18:02:11.731Z,59.75
2023-01-28T18:05:17.884Z,44.25
2023-01-28T18:08:21.627Z,48.75
2023-01-28T18:11:25.761Z,59.00
2023-01-28T18:14:29.321Z,63.75
2023-01-28T18:17:33.382Z,71.67
2023-01-28T18:20:38.567Z,68.25
2023-01-28T18:23:43.371Z,74.67
2023-01-28T18:26:48.829Z,70.00
2023-01-28T18:29:52.658Z,57.25
2023-01-28T18:32:56.227Z,60.00
2023-01-28T18:36:01.489Z,71.67
2023-01-28T18:39:05.240Z,51.00
2023-01-28T18:42:09.190Z,48.50
2023-01-28T18:45:12.818Z,69.00
2023-01-28T18:48:16.546Z,70.33
2023-01-28T18:51:30.092Z,72.00
2023-01-28T18:54:35.050Z,64.00
2023-01-28T18:57:39.560Z,56.00
2023-01-28T19:00:43.306Z,57.75
2023-01-28T19:03:46.851Z,75.67
2023-01-28T19:06:56.295Z,62.75
2023-01-28T19:09:59.844Z,67.75
2023-01-28T19:13:04.055Z,55.50
2023-01-28T19:16:08.059Z,72.33
2023-01-28T19:19:12.168Z,66.50
2023-01-28T19:22:17.155Z,42.00
2023-01-28T19:25:20.960Z,46.50
2023-01-28T19:28:24.447Z,54.50
2023-01-28T19:31:29.293Z,74.67
2023-01-28T19:34:32.849Z,61.00
2023-01-28T19:37:38.019Z,63.75
2023-01-28T19:40:42.695Z,52.00
2023-01-28T19:43:46.680Z,61.75
2023-01-28T19:46:50.235Z,45.25
2023-01-28T19:49:55.424Z,46.50
2023-01-28T19:53:00.243Z,55.00
2023-01-28T19:56:05.555Z,60.00
2023-01-28T19:59:09.135Z,46.25
2023-01-28T20:02:12.938Z,44.50
2023-01-28T20:05:16.847Z,54.25
2023-01-28T20:08:22.243Z,69.33
2023-01-28T20:11:26.184Z,56.25
2023-01-28T20:14:30.505Z,58.25
2023-01-28T20:17:34.105Z,59.75
2023-01-28T20:20:38.277Z,71.67
2023-01-28T20:23:43.111Z,63.50
2023-01-28T20:26:46.837Z,60.50
2023-01-28T20:29:50.452Z,52.75
2023-01-28T20:32:54.209Z,54.50
2023-01-28T20:36:02.684Z,99.00
2023-01-28T20:39:07.890Z,127.67
2023-01-28T20:42:14.324Z,67.75
2023-01-28T20:45:18.383Z,53.00
2023-01-28T20:48:22.987Z,60.75
2023-01-28T20:51:29.321Z,53.25
2023-01-28T20:54:34.368Z,51.00
2023-01-28T20:57:38.344Z,58.25
2023-01-28T21:00:41.696Z,49.00
2023-01-28T21:03:45.675Z,46.00
2023-01-28T21:06:49.194Z,55.00
2023-01-28T21:09:54.362Z,39.00
2023-01-28T21:12:57.801Z,36.75
2023-01-28T21:16:01.916Z,50.25
2023-01-28T21:19:05.338Z,44.00
2023-01-28T21:22:09.467Z,37.75
2023-01-28T21:25:15.904Z,69.00
2023-01-28T21:28:20.471Z,60.75
2023-01-28T21:31:26.290Z,52.75
2023-01-28T21:34:30.425Z,42.75
2023-01-28T21:37:34.257Z,45.00
2023-01-28T21:40:39.852Z,46.25
2023-01-28T21:43:43.428Z,47.00
2023-01-28T21:46:47.441Z,46.75
2023-01-28T21:49:51.043Z,52.75
2023-01-28T21:52:55.034Z,56.50
2023-01-28T21:55:59.831Z,55.50
2023-01-28T21:59:17.999Z,64.50
2023-01-28T22:02:23.905Z,66.50
2023-01-28T22:05:28.143Z,45.25
2023-01-28T22:08:31.617Z,65.75
2023-01-28T22:11:36.956Z,58.00
2023-01-28T22:14:40.547Z,57.25
2023-01-28T22:17:44.692Z,35.00
2023-01-28T22:20:48.639Z,56.75
2023-01-28T22:23:52.446Z,58.00
2023-01-28T22:26:58.082Z,62.50
2023-01-28T22:30:02.296Z,53.25
2023-01-28T22:33:05.795Z,49.25
2023-01-28T22:36:13.104Z,53.25
2023-01-28T22:39:17.650Z,45.75
2023-01-28T22:42:22.767Z,36.00
2023-01-28T22:45:26.202Z,65.50
2023-01-28T22:48:30.225Z,59.25
2023-01-28T22:51:35.708Z,46.50
2023-01-28T22:54:39.507Z,38.25
2023-01-28T22:57:44.584Z,59.00
2023-01-28T23:00:48.611Z,53.50
2023-01-28T23:03:53.101Z,43.75
2023-01-28T23:06:56.892Z,63.50
2023-01-28T23:10:00.374Z,38.25
2023-01-28T23:13:05.589Z,41.25
2023-01-28T23:16:27.290Z,45.50
2023-01-28T23:19:48.760Z,46.25
2023-01-28T23:23:10.532Z,41.75
2023-01-28T23:26:14.552Z,40.50
2023-01-28T23:29:19.727Z,47.00
2023-01-28T23:32:24.375Z,45.00
2023-01-28T23:35:28.143Z,36.75
2023-01-28T23:38:32.731Z,42.75
2023-01-28T23:41:36.565Z,50.00
2023-01-28T23:44:42.785Z,49.25
2023-01-28T23:47:46.267Z,47.25
2023-01-28T23:50:55.650Z,46.25
2023-01-28T23:53:59.267Z,43.50
2023-01-28T23:57:04.120Z,49.25
